METAR Data
IDs: Format: Raw Decoded Include TAF

Data at: 1117 UTC 28 Sep 2021

EDGS 281050Z VRB02KT 9999 SCT017 12/08 Q1024